sensor_id;sensor_type;location;lat;lon;timestamp;temperature;humidity
25963;DHT22;13760;52.588;13.406;2023-09-08T00:02:24;16.80;99.90
25963;DHT22;13760;52.588;13.406;2023-09-08T00:04:52;16.80;99.90
25963;DHT22;13760;52.588;13.406;2023-09-08T00:07:18;16.70;99.90
25963;DHT22;13760;52.588;13.406;2023-09-08T00:09:44;16.70;99.90
25963;DHT22;13760;52.588;13.406;2023-09-08T00:12:13;16.70;99.90
25963;DHT22;13760;52.588;13.406;2023-09-08T00:14:38;16.70;99.90
25963;DHT22;13760;52.588;13.406;2023-09-08T00:17:04;16.70;99.90
25963;DHT22;13760;52.588;13.406;2023-09-08T00:19:38;16.60;99.90
25963;DHT22;13760;52.588;13.406;2023-09-08T00:22:04;16.60;99.90
25963;DHT22;13760;52.588;13.406;2023-09-08T00:24:33;16.60;99.90
25963;DHT22;13760;52.588;13.406;2023-09-08T00:26:59;16.60;99.90
25963;DHT22;13760;52.588;13.406;2023-09-08T00:29:27;16.50;99.90
25963;DHT22;13760;52.588;13.406;2023-09-08T00:31:55;16.50;99.90
25963;DHT22;13760;52.588;13.406;2023-09-08T00:34:21;16.50;99.90
25963;DHT22;13760;52.588;13.406;2023-09-08T00:36:47;16.40;99.90
25963;DHT22;13760;52.588;13.406;2023-09-08T00:39:15;16.40;99.90
25963;DHT22;13760;52.588;13.406;2023-09-08T00:41:43;16.40;99.90
25963;DHT22;13760;52.588;13.406;2023-09-08T00:44:09;16.40;99.90
25963;DHT22;13760;52.588;13.406;2023-09-08T00:46:36;16.30;99.90
25963;DHT22;13760;52.588;13.406;2023-09-08T00:49:02;16.30;99.90
25963;DHT22;13760;52.588;13.406;2023-09-08T00:51:28;16.30;99.90
25963;DHT22;13760;52.588;13.406;2023-09-08T00:53:54;16.30;99.90
25963;DHT22;13760;52.588;13.406;2023-09-08T00:56:20;16.30;99.90
25963;DHT22;13760;52.588;13.406;2023-09-08T00:58:48;16.20;99.90
25963;DHT22;13760;52.588;13.406;2023-09-08T01:01:13;16.20;99.90
25963;DHT22;13760;52.588;13.406;2023-09-08T01:03:39;16.20;99.90
25963;DHT22;13760;52.588;13.406;2023-09-08T01:06:06;16.20;99.90
25963;DHT22;13760;52.588;13.406;2023-09-08T01:08:31;16.20;99.90
25963;DHT22;13760;52.588;13.406;2023-09-08T01:10:57;16.20;99.90
25963;DHT22;13760;52.588;13.406;2023-09-08T01:13:23;16.20;99.90
25963;DHT22;13760;52.588;13.406;2023-09-08T01:15:49;16.10;99.90
25963;DHT22;13760;52.588;13.406;2023-09-08T01:18:15;16.10;99.90
25963;DHT22;13760;52.588;13.406;2023-09-08T01:21:11;16.10;99.90
25963;DHT22;13760;52.588;13.406;2023-09-08T01:24:15;16.10;99.90
25963;DHT22;13760;52.588;13.406;2023-09-08T01:26:41;16.10;99.90
25963;DHT22;13760;52.588;13.406;2023-09-08T01:29:08;16.00;99.90
25963;DHT22;13760;52.588;13.406;2023-09-08T01:31:35;16.00;99.90
25963;DHT22;13760;52.588;13.406;2023-09-08T01:34:01;16.00;99.90
25963;DHT22;13760;52.588;13.406;2023-09-08T01:36:30;16.00;99.90
25963;DHT22;13760;52.588;13.406;2023-09-08T01:38:55;16.00;99.90
25963;DHT22;13760;52.588;13.406;2023-09-08T01:41:21;16.00;99.90
25963;DHT22;13760;52.588;13.406;2023-09-08T01:43:46;16.00;99.90
25963;DHT22;13760;52.588;13.406;2023-09-08T01:46:12;15.90;99.90
25963;DHT22;13760;52.588;13.406;2023-09-08T01:48:38;16.00;99.90
25963;DHT22;13760;52.588;13.406;2023-09-08T01:51:04;16.00;99.90
25963;DHT22;13760;52.588;13.406;2023-09-08T01:53:29;15.90;99.90
25963;DHT22;13760;52.588;13.406;2023-09-08T01:55:55;16.00;99.90
25963;DHT22;13760;52.588;13.406;2023-09-08T01:58:24;15.90;99.90
25963;DHT22;13760;52.588;13.406;2023-09-08T02:00:55;16.00;99.90
25963;DHT22;13760;52.588;13.406;2023-09-08T02:03:20;15.90;99.90
25963;DHT22;13760;52.588;13.406;2023-09-08T02:05:46;15.90;99.90
25963;DHT22;13760;52.588;13.406;2023-09-08T02:08:14;15.90;99.90
25963;DHT22;13760;52.588;13.406;2023-09-08T02:10:40;15.90;99.90
25963;DHT22;13760;52.588;13.406;2023-09-08T02:13:05;15.90;99.90
25963;DHT22;13760;52.588;13.406;2023-09-08T02:15:32;15.80;99.90
25963;DHT22;13760;52.588;13.406;2023-09-08T02:17:59;15.80;99.90
25963;DHT22;13760;52.588;13.406;2023-09-08T02:20:28;15.90;99.90
25963;DHT22;13760;52.588;13.406;2023-09-08T02:22:54;15.80;99.90
25963;DHT22;13760;52.588;13.406;2023-09-08T02:25:20;15.80;99.90
25963;DHT22;13760;52.588;13.406;2023-09-08T02:27:50;15.80;99.90
25963;DHT22;13760;52.588;13.406;2023-09-08T02:30:16;15.80;99.90
25963;DHT22;13760;52.588;13.406;2023-09-08T02:32:42;15.70;99.90
25963;DHT22;13760;52.588;13.406;2023-09-08T02:35:08;15.70;99.90
25963;DHT22;13760;52.588;13.406;2023-09-08T02:37:34;15.70;99.90
25963;DHT22;13760;52.588;13.406;2023-09-08T02:39:59;15.70;99.90
25963;DHT22;13760;52.588;13.406;2023-09-08T02:42:28;15.70;99.90
25963;DHT22;13760;52.588;13.406;2023-09-08T02:44:54;15.70;99.90
25963;DHT22;13760;52.588;13.406;2023-09-08T02:47:19;15.70;99.90
25963;DHT22;13760;52.588;13.406;2023-09-08T02:50:01;15.70;99.90
25963;DHT22;13760;52.588;13.406;2023-09-08T02:52:28;15.60;99.90
25963;DHT22;13760;52.588;13.406;2023-09-08T02:54:53;15.60;99.90
25963;DHT22;13760;52.588;13.406;2023-09-08T02:57:19;15.60;99.90
25963;DHT22;13760;52.588;13.406;2023-09-08T02:59:49;15.60;99.90
25963;DHT22;13760;52.588;13.406;2023-09-08T03:02:16;15.60;99.90
25963;DHT22;13760;52.588;13.406;2023-09-08T03:04:41;15.60;99.90
25963;DHT22;13760;52.588;13.406;2023-09-08T03:07:10;15.60;99.90
25963;DHT22;13760;52.588;13.406;2023-09-08T03:09:36;15.50;99.90
25963;DHT22;13760;52.588;13.406;2023-09-08T03:12:01;15.60;99.90
25963;DHT22;13760;52.588;13.406;2023-09-08T03:14:27;15.50;99.90
25963;DHT22;13760;52.588;13.406;2023-09-08T03:16:53;15.50;99.90
25963;DHT22;13760;52.588;13.406;2023-09-08T03:19:18;15.50;99.90
25963;DHT22;13760;52.588;13.406;2023-09-08T03:21:52;15.50;99.90
25963;DHT22;13760;52.588;13.406;2023-09-08T03:24:25;15.40;99.90
25963;DHT22;13760;52.588;13.406;2023-09-08T03:26:50;15.50;99.90
25963;DHT22;13760;52.588;13.406;2023-09-08T03:29:18;15.40;99.90
25963;DHT22;13760;52.588;13.406;2023-09-08T03:31:44;15.40;99.90
25963;DHT22;13760;52.588;13.406;2023-09-08T03:34:10;15.40;99.90
25963;DHT22;13760;52.588;13.406;2023-09-08T03:36:36;15.40;99.90
25963;DHT22;13760;52.588;13.406;2023-09-08T03:39:02;15.40;99.90
25963;DHT22;13760;52.588;13.406;2023-09-08T03:41:28;15.30;99.90
25963;DHT22;13760;52.588;13.406;2023-09-08T03:43:54;15.30;99.90
25963;DHT22;13760;52.588;13.406;2023-09-08T03:46:19;15.20;99.90
25963;DHT22;13760;52.588;13.406;2023-09-08T03:48:48;15.30;99.90
25963;DHT22;13760;52.588;13.406;2023-09-08T03:51:13;15.20;99.90
25963;DHT22;13760;52.588;13.406;2023-09-08T03:53:39;15.20;99.90
25963;DHT22;13760;52.588;13.406;2023-09-08T03:56:04;15.20;99.90
25963;DHT22;13760;52.588;13.406;2023-09-08T03:58:30;15.20;99.90
25963;DHT22;13760;52.588;13.406;2023-09-08T04:00:56;15.20;99.90
25963;DHT22;13760;52.588;13.406;2023-09-08T04:03:21;15.10;99.90
25963;DHT22;13760;52.588;13.406;2023-09-08T04:05:47;15.10;99.90
25963;DHT22;13760;52.588;13.406;2023-09-08T04:08:13;15.10;99.90
25963;DHT22;13760;52.588;13.406;2023-09-08T04:10:38;15.10;99.90
25963;DHT22;13760;52.588;13.406;2023-09-08T04:13:07;15.10;99.90
25963;DHT22;13760;52.588;13.406;2023-09-08T04:15:32;15.00;99.90
25963;DHT22;13760;52.588;13.406;2023-09-08T04:17:58;15.10;99.90
25963;DHT22;13760;52.588;13.406;2023-09-08T04:20:26;15.10;99.90
25963;DHT22;13760;52.588;13.406;2023-09-08T04:22:58;15.10;99.90
25963;DHT22;13760;52.588;13.406;2023-09-08T04:25:23;15.10;99.90
25963;DHT22;13760;52.588;13.406;2023-09-08T04:27:50;15.10;99.90
25963;DHT22;13760;52.588;13.406;2023-09-08T04:30:16;15.10;99.90
25963;DHT22;13760;52.588;13.406;2023-09-08T04:32:53;15.10;99.90
25963;DHT22;13760;52.588;13.406;2023-09-08T04:35:29;15.10;99.90
25963;DHT22;13760;52.588;13.406;2023-09-08T04:37:55;15.10;99.90
25963;DHT22;13760;52.588;13.406;2023-09-08T04:40:20;15.10;99.90
25963;DHT22;13760;52.588;13.406;2023-09-08T04:42:46;15.00;99.90
25963;DHT22;13760;52.588;13.406;2023-09-08T04:45:11;15.00;99.90
25963;DHT22;13760;52.588;13.406;2023-09-08T04:47:39;15.00;99.90
25963;DHT22;13760;52.588;13.406;2023-09-08T04:50:05;15.10;99.90
25963;DHT22;13760;52.588;13.406;2023-09-08T04:52:30;15.10;99.90
25963;DHT22;13760;52.588;13.406;2023-09-08T04:54:56;15.10;99.90
25963;DHT22;13760;52.588;13.406;2023-09-08T04:57:22;15.10;99.90
25963;DHT22;13760;52.588;13.406;2023-09-08T04:59:47;15.10;99.90
25963;DHT22;13760;52.588;13.406;2023-09-08T05:02:13;15.20;99.90
25963;DHT22;13760;52.588;13.406;2023-09-08T05:04:41;15.20;99.90
25963;DHT22;13760;52.588;13.406;2023-09-08T05:07:07;15.30;99.90
25963;DHT22;13760;52.588;13.406;2023-09-08T05:09:32;15.30;99.90
25963;DHT22;13760;52.588;13.406;2023-09-08T05:11:59;15.30;99.90
25963;DHT22;13760;52.588;13.406;2023-09-08T05:14:25;15.40;99.90
25963;DHT22;13760;52.588;13.406;2023-09-08T05:16:51;15.40;99.90
25963;DHT22;13760;52.588;13.406;2023-09-08T05:19:20;15.40;99.90
25963;DHT22;13760;52.588;13.406;2023-09-08T05:21:46;15.40;99.90
25963;DHT22;13760;52.588;13.406;2023-09-08T05:24:12;15.50;99.90
25963;DHT22;13760;52.588;13.406;2023-09-08T05:26:38;15.50;99.90
25963;DHT22;13760;52.588;13.406;2023-09-08T05:29:06;15.60;99.90
25963;DHT22;13760;52.588;13.406;2023-09-08T05:31:32;15.60;99.90
25963;DHT22;13760;52.588;13.406;2023-09-08T05:34:00;15.70;99.90
25963;DHT22;13760;52.588;13.406;2023-09-08T05:36:26;15.80;99.90
25963;DHT22;13760;52.588;13.406;2023-09-08T05:38:52;15.80;99.90
25963;DHT22;13760;52.588;13.406;2023-09-08T05:41:17;15.90;99.90
25963;DHT22;13760;52.588;13.406;2023-09-08T05:43:44;16.00;99.90
25963;DHT22;13760;52.588;13.406;2023-09-08T05:46:10;16.00;99.90
25963;DHT22;13760;52.588;13.406;2023-09-08T05:48:36;16.10;99.90
25963;DHT22;13760;52.588;13.406;2023-09-08T05:51:02;16.10;99.90
25963;DHT22;13760;52.588;13.406;2023-09-08T05:53:28;16.20;99.90
25963;DHT22;13760;52.588;13.406;2023-09-08T05:55:53;16.30;99.90
25963;DHT22;13760;52.588;13.406;2023-09-08T05:58:19;16.40;99.90
25963;DHT22;13760;52.588;13.406;2023-09-08T06:00:44;16.40;99.90
25963;DHT22;13760;52.588;13.406;2023-09-08T06:03:10;16.50;99.90
25963;DHT22;13760;52.588;13.406;2023-09-08T06:05:35;16.60;99.90
25963;DHT22;13760;52.588;13.406;2023-09-08T06:08:01;16.70;99.90
25963;DHT22;13760;52.588;13.406;2023-09-08T06:10:27;16.80;99.90
25963;DHT22;13760;52.588;13.406;2023-09-08T06:12:52;16.90;99.90
25963;DHT22;13760;52.588;13.406;2023-09-08T06:15:18;17.00;99.90
25963;DHT22;13760;52.588;13.406;2023-09-08T06:17:44;17.00;99.90
25963;DHT22;13760;52.588;13.406;2023-09-08T06:20:10;17.20;99.90
25963;DHT22;13760;52.588;13.406;2023-09-08T06:22:36;17.20;99.90
25963;DHT22;13760;52.588;13.406;2023-09-08T06:25:02;17.30;99.90
25963;DHT22;13760;52.588;13.406;2023-09-08T06:27:27;17.40;99.90
25963;DHT22;13760;52.588;13.406;2023-09-08T06:29:53;17.50;99.90
25963;DHT22;13760;52.588;13.406;2023-09-08T06:32:19;17.60;99.90
25963;DHT22;13760;52.588;13.406;2023-09-08T06:34:44;17.70;99.90
25963;DHT22;13760;52.588;13.406;2023-09-08T06:37:10;17.80;99.90
25963;DHT22;13760;52.588;13.406;2023-09-08T06:39:36;17.90;99.90
25963;DHT22;13760;52.588;13.406;2023-09-08T06:42:02;17.90;99.90
25963;DHT22;13760;52.588;13.406;2023-09-08T06:44:27;18.10;99.90
25963;DHT22;13760;52.588;13.406;2023-09-08T06:46:53;18.20;99.90
25963;DHT22;13760;52.588;13.406;2023-09-08T06:49:18;18.30;99.90
25963;DHT22;13760;52.588;13.406;2023-09-08T06:51:47;18.40;99.90
25963;DHT22;13760;52.588;13.406;2023-09-08T06:54:18;18.40;99.90
25963;DHT22;13760;52.588;13.406;2023-09-08T06:56:44;18.60;99.90
25963;DHT22;13760;52.588;13.406;2023-09-08T06:59:12;18.70;99.90
25963;DHT22;13760;52.588;13.406;2023-09-08T07:01:38;18.80;99.90
25963;DHT22;13760;52.588;13.406;2023-09-08T07:04:03;18.90;99.90
25963;DHT22;13760;52.588;13.406;2023-09-08T07:06:29;19.10;99.90
25963;DHT22;13760;52.588;13.406;2023-09-08T07:08:54;19.30;99.90
25963;DHT22;13760;52.588;13.406;2023-09-08T07:11:20;19.40;99.90
25963;DHT22;13760;52.588;13.406;2023-09-08T07:13:48;19.60;99.90
25963;DHT22;13760;52.588;13.406;2023-09-08T07:16:14;19.80;99.90
25963;DHT22;13760;52.588;13.406;2023-09-08T07:18:40;19.90;99.90
25963;DHT22;13760;52.588;13.406;2023-09-08T07:21:05;20.00;99.90
25963;DHT22;13760;52.588;13.406;2023-09-08T07:23:31;20.20;99.90
25963;DHT22;13760;52.588;13.406;2023-09-08T07:26:00;20.30;99.90
25963;DHT22;13760;52.588;13.406;2023-09-08T07:28:25;20.50;99.90
25963;DHT22;13760;52.588;13.406;2023-09-08T07:30:51;20.70;99.90
25963;DHT22;13760;52.588;13.406;2023-09-08T07:33:17;20.90;99.90
25963;DHT22;13760;52.588;13.406;2023-09-08T07:35:42;21.10;99.90
25963;DHT22;13760;52.588;13.406;2023-09-08T07:38:08;21.30;99.90
25963;DHT22;13760;52.588;13.406;2023-09-08T07:40:34;21.50;99.90
25963;DHT22;13760;52.588;13.406;2023-09-08T07:43:00;21.70;99.90
25963;DHT22;13760;52.588;13.406;2023-09-08T07:45:26;21.90;99.90
25963;DHT22;13760;52.588;13.406;2023-09-08T07:51:39;22.30;99.90
25963;DHT22;13760;52.588;13.406;2023-09-08T07:54:08;22.60;99.90
25963;DHT22;13760;52.588;13.406;2023-09-08T07:56:37;22.80;99.90
25963;DHT22;13760;52.588;13.406;2023-09-08T07:59:03;23.00;99.90
25963;DHT22;13760;52.588;13.406;2023-09-08T08:01:32;23.10;99.90
25963;DHT22;13760;52.588;13.406;2023-09-08T08:03:59;23.20;99.90
25963;DHT22;13760;52.588;13.406;2023-09-08T08:06:31;23.40;99.90
25963;DHT22;13760;52.588;13.406;2023-09-08T08:08:57;23.60;99.90
25963;DHT22;13760;52.588;13.406;2023-09-08T08:11:36;23.70;99.90
25963;DHT22;13760;52.588;13.406;2023-09-08T08:14:29;23.80;99.90
25963;DHT22;13760;52.588;13.406;2023-09-08T08:16:55;24.00;99.90
25963;DHT22;13760;52.588;13.406;2023-09-08T08:19:26;24.10;99.90
25963;DHT22;13760;52.588;13.406;2023-09-08T08:21:59;24.10;99.90
25963;DHT22;13760;52.588;13.406;2023-09-08T08:24:28;24.30;99.90
25963;DHT22;13760;52.588;13.406;2023-09-08T08:26:56;24.40;99.90
25963;DHT22;13760;52.588;13.406;2023-09-08T08:29:21;24.50;99.90
25963;DHT22;13760;52.588;13.406;2023-09-08T08:31:47;24.50;99.90
25963;DHT22;13760;52.588;13.406;2023-09-08T08:34:15;24.60;99.90
25963;DHT22;13760;52.588;13.406;2023-09-08T08:36:50;24.70;99.90
25963;DHT22;13760;52.588;13.406;2023-09-08T08:39:16;24.80;99.90
25963;DHT22;13760;52.588;13.406;2023-09-08T08:41:42;24.90;99.90
25963;DHT22;13760;52.588;13.406;2023-09-08T08:44:08;25.00;99.90
25963;DHT22;13760;52.588;13.406;2023-09-08T08:46:36;25.10;99.90
25963;DHT22;13760;52.588;13.406;2023-09-08T08:49:06;25.10;99.90
25963;DHT22;13760;52.588;13.406;2023-09-08T08:51:38;25.20;99.90
25963;DHT22;13760;52.588;13.406;2023-09-08T08:54:05;25.30;99.90
25963;DHT22;13760;52.588;13.406;2023-09-08T08:56:36;25.30;99.90
25963;DHT22;13760;52.588;13.406;2023-09-08T08:59:04;25.40;99.90
25963;DHT22;13760;52.588;13.406;2023-09-08T09:01:31;25.50;99.90
25963;DHT22;13760;52.588;13.406;2023-09-08T09:04:07;25.60;99.90
25963;DHT22;13760;52.588;13.406;2023-09-08T09:06:36;25.70;99.90
25963;DHT22;13760;52.588;13.406;2023-09-08T09:09:11;25.80;99.90
25963;DHT22;13760;52.588;13.406;2023-09-08T09:11:51;25.80;99.90
25963;DHT22;13760;52.588;13.406;2023-09-08T09:14:17;25.90;99.90
25963;DHT22;13760;52.588;13.406;2023-09-08T09:16:43;25.90;99.90
25963;DHT22;13760;52.588;13.406;2023-09-08T09:19:09;26.00;99.90
25963;DHT22;13760;52.588;13.406;2023-09-08T09:21:44;26.00;99.90
25963;DHT22;13760;52.588;13.406;2023-09-08T09:24:17;26.00;99.70
25963;DHT22;13760;52.588;13.406;2023-09-08T09:26:43;26.00;99.70
25963;DHT22;13760;52.588;13.406;2023-09-08T09:29:13;26.10;99.20
25963;DHT22;13760;52.588;13.406;2023-09-08T09:32:02;26.10;99.30
25963;DHT22;13760;52.588;13.406;2023-09-08T09:34:28;26.20;98.50
25963;DHT22;13760;52.588;13.406;2023-09-08T09:36:54;26.20;98.50
25963;DHT22;13760;52.588;13.406;2023-09-08T09:39:21;26.20;97.80
25963;DHT22;13760;52.588;13.406;2023-09-08T09:41:48;26.10;98.30
25963;DHT22;13760;52.588;13.406;2023-09-08T09:44:15;26.20;98.90
25963;DHT22;13760;52.588;13.406;2023-09-08T09:46:45;26.20;98.10
25963;DHT22;13760;52.588;13.406;2023-09-08T09:49:16;26.30;98.60
25963;DHT22;13760;52.588;13.406;2023-09-08T09:51:49;26.20;98.20
25963;DHT22;13760;52.588;13.406;2023-09-08T09:54:16;26.30;97.80
25963;DHT22;13760;52.588;13.406;2023-09-08T09:56:45;26.40;97.30
25963;DHT22;13760;52.588;13.406;2023-09-08T09:59:13;26.40;97.00
25963;DHT22;13760;52.588;13.406;2023-09-08T10:01:40;26.50;97.50
25963;DHT22;13760;52.588;13.406;2023-09-08T10:04:07;26.50;97.20
25963;DHT22;13760;52.588;13.406;2023-09-08T10:06:35;26.50;96.50
25963;DHT22;13760;52.588;13.406;2023-09-08T10:09:03;26.60;96.70
25963;DHT22;13760;52.588;13.406;2023-09-08T10:11:55;26.60;95.50
25963;DHT22;13760;52.588;13.406;2023-09-08T10:14:34;26.70;95.70
25963;DHT22;13760;52.588;13.406;2023-09-08T10:17:01;26.80;95.80
25963;DHT22;13760;52.588;13.406;2023-09-08T10:19:28;26.90;95.60
25963;DHT22;13760;52.588;13.406;2023-09-08T10:21:55;27.00;95.40
25963;DHT22;13760;52.588;13.406;2023-09-08T10:24:33;27.10;94.90
25963;DHT22;13760;52.588;13.406;2023-09-08T10:27:10;27.10;94.00
25963;DHT22;13760;52.588;13.406;2023-09-08T10:29:36;27.20;93.70
25963;DHT22;13760;52.588;13.406;2023-09-08T10:32:03;27.20;93.00
25963;DHT22;13760;52.588;13.406;2023-09-08T10:34:38;27.30;92.70
25963;DHT22;13760;52.588;13.406;2023-09-08T10:37:24;27.30;91.60
25963;DHT22;13760;52.588;13.406;2023-09-08T10:39:51;27.30;91.60
25963;DHT22;13760;52.588;13.406;2023-09-08T10:47:13;27.50;91.30
25963;DHT22;13760;52.588;13.406;2023-09-08T10:49:39;27.60;91.00
25963;DHT22;13760;52.588;13.406;2023-09-08T10:52:09;27.60;90.00
25963;DHT22;13760;52.588;13.406;2023-09-08T10:54:42;27.70;90.70
25963;DHT22;13760;52.588;13.406;2023-09-08T10:57:16;27.70;89.50
25963;DHT22;13760;52.588;13.406;2023-09-08T10:59:53;27.70;89.10
25963;DHT22;13760;52.588;13.406;2023-09-08T11:02:37;27.80;89.00
25963;DHT22;13760;52.588;13.406;2023-09-08T11:05:10;27.90;88.00
25963;DHT22;13760;52.588;13.406;2023-09-08T11:07:36;27.90;86.40
25963;DHT22;13760;52.588;13.406;2023-09-08T11:10:10;28.10;87.20
25963;DHT22;13760;52.588;13.406;2023-09-08T11:12:59;28.10;85.60
25963;DHT22;13760;52.588;13.406;2023-09-08T11:15:28;28.20;84.00
25963;DHT22;13760;52.588;13.406;2023-09-08T11:18:02;28.30;84.40
25963;DHT22;13760;52.588;13.406;2023-09-08T11:20:30;28.40;83.90
25963;DHT22;13760;52.588;13.406;2023-09-08T11:22:55;28.60;82.70
25963;DHT22;13760;52.588;13.406;2023-09-08T11:25:21;28.70;81.20
25963;DHT22;13760;52.588;13.406;2023-09-08T11:27:48;28.80;79.40
25963;DHT22;13760;52.588;13.406;2023-09-08T11:30:15;28.80;77.70
25963;DHT22;13760;52.588;13.406;2023-09-08T11:32:41;28.80;76.60
25963;DHT22;13760;52.588;13.406;2023-09-08T11:35:08;28.90;74.10
25963;DHT22;13760;52.588;13.406;2023-09-08T11:37:37;28.90;73.90
25963;DHT22;13760;52.588;13.406;2023-09-08T11:40:08;28.90;73.90
25963;DHT22;13760;52.588;13.406;2023-09-08T11:42:41;29.00;75.00
25963;DHT22;13760;52.588;13.406;2023-09-08T11:45:12;29.20;73.80
25963;DHT22;13760;52.588;13.406;2023-09-08T11:47:42;29.20;70.90
25963;DHT22;13760;52.588;13.406;2023-09-08T11:50:11;29.30;70.80
25963;DHT22;13760;52.588;13.406;2023-09-08T11:52:49;29.40;69.10
25963;DHT22;13760;52.588;13.406;2023-09-08T11:55:36;29.50;68.50
25963;DHT22;13760;52.588;13.406;2023-09-08T11:58:15;29.50;67.30
25963;DHT22;13760;52.588;13.406;2023-09-08T12:00:45;29.50;67.80
25963;DHT22;13760;52.588;13.406;2023-09-08T12:03:31;29.60;67.60
25963;DHT22;13760;52.588;13.406;2023-09-08T12:06:14;29.80;65.90
25963;DHT22;13760;52.588;13.406;2023-09-08T12:08:51;29.80;64.00
25963;DHT22;13760;52.588;13.406;2023-09-08T12:11:38;29.90;63.00
25963;DHT22;13760;52.588;13.406;2023-09-08T12:14:09;29.90;64.20
25963;DHT22;13760;52.588;13.406;2023-09-08T12:16:36;30.00;62.10
25963;DHT22;13760;52.588;13.406;2023-09-08T12:19:02;30.10;60.70
25963;DHT22;13760;52.588;13.406;2023-09-08T12:21:28;30.20;60.70
25963;DHT22;13760;52.588;13.406;2023-09-08T12:24:06;30.20;60.60
25963;DHT22;13760;52.588;13.406;2023-09-08T12:26:36;30.10;58.80
25963;DHT22;13760;52.588;13.406;2023-09-08T12:29:03;30.00;59.40
25963;DHT22;13760;52.588;13.406;2023-09-08T12:31:29;29.90;60.00
25963;DHT22;13760;52.588;13.406;2023-09-08T12:33:55;29.80;59.40
25963;DHT22;13760;52.588;13.406;2023-09-08T12:36:20;29.90;59.80
25963;DHT22;13760;52.588;13.406;2023-09-08T12:38:52;29.90;58.40
25963;DHT22;13760;52.588;13.406;2023-09-08T12:41:19;29.90;57.50
25963;DHT22;13760;52.588;13.406;2023-09-08T12:43:45;30.00;55.70
25963;DHT22;13760;52.588;13.406;2023-09-08T12:46:11;30.10;56.70
25963;DHT22;13760;52.588;13.406;2023-09-08T12:48:39;30.20;57.50
25963;DHT22;13760;52.588;13.406;2023-09-08T12:51:07;30.40;57.30
25963;DHT22;13760;52.588;13.406;2023-09-08T12:53:36;30.50;57.00
25963;DHT22;13760;52.588;13.406;2023-09-08T12:56:02;30.60;56.30
25963;DHT22;13760;52.588;13.406;2023-09-08T12:58:27;30.60;57.70
25963;DHT22;13760;52.588;13.406;2023-09-08T13:00:57;30.70;56.30
25963;DHT22;13760;52.588;13.406;2023-09-08T13:03:25;30.70;56.50
25963;DHT22;13760;52.588;13.406;2023-09-08T13:05:56;30.70;56.00
25963;DHT22;13760;52.588;13.406;2023-09-08T13:08:22;30.60;56.80
25963;DHT22;13760;52.588;13.406;2023-09-08T13:10:47;30.60;57.30
25963;DHT22;13760;52.588;13.406;2023-09-08T13:13:18;30.60;57.40
25963;DHT22;13760;52.588;13.406;2023-09-08T13:15:55;30.70;58.00
25963;DHT22;13760;52.588;13.406;2023-09-08T13:18:31;30.80;58.00
25963;DHT22;13760;52.588;13.406;2023-09-08T13:21:02;30.90;57.00
25963;DHT22;13760;52.588;13.406;2023-09-08T13:23:46;30.90;56.30
25963;DHT22;13760;52.588;13.406;2023-09-08T13:26:15;30.90;56.50
25963;DHT22;13760;52.588;13.406;2023-09-08T13:28:45;30.80;56.70
25963;DHT22;13760;52.588;13.406;2023-09-08T13:31:16;30.80;56.70
25963;DHT22;13760;52.588;13.406;2023-09-08T13:33:52;30.80;56.60
25963;DHT22;13760;52.588;13.406;2023-09-08T13:36:20;30.90;56.70
25963;DHT22;13760;52.588;13.406;2023-09-08T13:38:45;30.80;56.00
25963;DHT22;13760;52.588;13.406;2023-09-08T13:41:11;30.70;56.40
25963;DHT22;13760;52.588;13.406;2023-09-08T13:43:40;30.60;56.30
25963;DHT22;13760;52.588;13.406;2023-09-08T13:46:08;30.50;56.00
25963;DHT22;13760;52.588;13.406;2023-09-08T13:48:34;30.30;55.90
25963;DHT22;13760;52.588;13.406;2023-09-08T13:51:03;30.20;56.20
25963;DHT22;13760;52.588;13.406;2023-09-08T13:53:31;30.00;56.60
25963;DHT22;13760;52.588;13.406;2023-09-08T13:56:06;29.90;57.10
25963;DHT22;13760;52.588;13.406;2023-09-08T13:58:37;29.90;57.30
25963;DHT22;13760;52.588;13.406;2023-09-08T14:01:12;30.00;57.10
25963;DHT22;13760;52.588;13.406;2023-09-08T14:03:41;29.90;55.60
25963;DHT22;13760;52.588;13.406;2023-09-08T14:06:18;29.80;56.00
25963;DHT22;13760;52.588;13.406;2023-09-08T14:08:44;29.70;56.10
25963;DHT22;13760;52.588;13.406;2023-09-08T14:11:10;29.70;55.80
25963;DHT22;13760;52.588;13.406;2023-09-08T14:16:33;29.60;56.30
25963;DHT22;13760;52.588;13.406;2023-09-08T14:18:58;29.60;56.60
25963;DHT22;13760;52.588;13.406;2023-09-08T14:21:24;29.50;55.80
25963;DHT22;13760;52.588;13.406;2023-09-08T14:23:52;29.40;55.90
25963;DHT22;13760;52.588;13.406;2023-09-08T14:26:18;29.40;55.90
25963;DHT22;13760;52.588;13.406;2023-09-08T14:28:45;29.30;56.50
25963;DHT22;13760;52.588;13.406;2023-09-08T14:31:11;29.30;56.60
25963;DHT22;13760;52.588;13.406;2023-09-08T14:33:43;29.30;57.30
25963;DHT22;13760;52.588;13.406;2023-09-08T14:36:17;29.30;56.60
25963;DHT22;13760;52.588;13.406;2023-09-08T14:38:42;29.20;56.00
25963;DHT22;13760;52.588;13.406;2023-09-08T14:41:13;29.10;56.50
25963;DHT22;13760;52.588;13.406;2023-09-08T14:43:39;29.00;56.20
25963;DHT22;13760;52.588;13.406;2023-09-08T14:46:05;29.00;56.50
25963;DHT22;13760;52.588;13.406;2023-09-08T14:48:31;28.90;56.70
25963;DHT22;13760;52.588;13.406;2023-09-08T14:50:57;28.90;56.80
25963;DHT22;13760;52.588;13.406;2023-09-08T14:53:23;28.90;57.00
25963;DHT22;13760;52.588;13.406;2023-09-08T14:55:49;28.80;57.10
25963;DHT22;13760;52.588;13.406;2023-09-08T14:58:16;28.80;57.20
25963;DHT22;13760;52.588;13.406;2023-09-08T15:00:50;28.70;57.30
25963;DHT22;13760;52.588;13.406;2023-09-08T15:03:19;28.70;57.10
25963;DHT22;13760;52.588;13.406;2023-09-08T15:05:45;28.70;57.50
25963;DHT22;13760;52.588;13.406;2023-09-08T15:08:15;28.60;57.60
25963;DHT22;13760;52.588;13.406;2023-09-08T15:10:41;28.60;58.20
25963;DHT22;13760;52.588;13.406;2023-09-08T15:13:34;28.60;57.40
25963;DHT22;13760;52.588;13.406;2023-09-08T15:16:05;28.50;57.50
25963;DHT22;13760;52.588;13.406;2023-09-08T15:18:31;28.40;57.80
25963;DHT22;13760;52.588;13.406;2023-09-08T15:20:57;28.40;57.90
25963;DHT22;13760;52.588;13.406;2023-09-08T15:23:43;28.40;58.20
25963;DHT22;13760;52.588;13.406;2023-09-08T15:26:28;28.30;58.10
25963;DHT22;13760;52.588;13.406;2023-09-08T15:29:04;28.30;58.30
25963;DHT22;13760;52.588;13.406;2023-09-08T15:31:36;28.30;58.20
25963;DHT22;13760;52.588;13.406;2023-09-08T15:34:12;28.20;58.10
25963;DHT22;13760;52.588;13.406;2023-09-08T15:36:38;28.10;58.00